Thunder radar more information blitzortung!


Radar de pluja more information rain snow radar


Visita la nostra xarxa de llocs de meteo:

Template documentation
and downloads

And another site



No particular awareness of the weather is required.    There are no Weather-warnings

Pagina Historial Weather Underground text

Diari Resum February 11, 2018 Unitats:  Mètric    Imperial   Tant
« Previous Dia
SegĂźent Dia »
Diari Setmana Mensual Anual Personalitzada
  Maxima: Minima: Media:
Temperatura: -17.8 °C -17.6 °C -13.8 °C
Punt de rosada: -17.8 °C -25.7 °C -19.7 °C
Humitat: Humidity % 32 % 48 %
Wind Speed: 0 km/h 0 km/h 7.2 km/h
RĂ fegues de vent: 0 km/h - -
Vent:- - South
Pression baro: 0 hPa 34256.2 hPa -
Precipitacions: 0 mm    
Historical Graphs
 
 
Dades de taula per February 11, 2018
Temps Temperatura Punt de rosada Pression baro Vent Wind Speed RĂ fegues de vent Humitat Rainfall Rate (Hourly)
-17.8 °C -17.8 °C 0 hPa Calm     Humidity % 0 mm
00:02 -16.9 °C -25.2 °C 34428.8 hPa Calm     32 % 0 mm
00:07 -16.9 °C -25.2 °C 34428.8 hPa WNW 3.1 km/h   32 % 0 mm
00:12 -16.9 °C -25.2 °C 34428.8 hPa West 6 km/h 6 km/h 32 % 0 mm
00:17 -16.9 °C -25.2 °C 34428.8 hPa NE 6.8 km/h 6.8 km/h 32 % 0 mm
00:22 -17 °C -25.3 °C 34428.8 hPa NW 3.7 km/h 3.7 km/h 32 % 0 mm
00:27 -17.1 °C -25.3 °C 34428.8 hPa SW 6.8 km/h 6.8 km/h 32 % 0 mm
00:32 -17 °C -25.3 °C 34428.8 hPa West 6 km/h 6 km/h 32 % 0 mm
00:37 -17.2 °C -25.2 °C 34428.8 hPa SW 6 km/h 6 km/h 33 % 0 mm
00:42 -17.4 °C -25.7 °C 34428.8 hPa SW 9 km/h 9 km/h 32 % 0 mm
00:47 -17.4 °C -25.7 °C 34428.8 hPa SW 3.1 km/h 3.1 km/h 32 % 0 mm
00:52 -17.4 °C -25.4 °C 34428.8 hPa NE 6 km/h 6 km/h 33 % 0 mm
00:57 -17.4 °C -25.4 °C 34428.8 hPa Calm     33 % 0 mm
01:02 -17.4 °C -25.4 °C 34428.8 hPa Calm     33 % 0 mm
01:07 -17.3 °C -25.4 °C 34428.8 hPa Calm     33 % 0 mm
01:12 -17.3 °C -25.3 °C 34395 hPa NNW 5.1 km/h 5.1 km/h 33 % 0 mm
01:17 -17.2 °C -25.3 °C 34395 hPa Calm     33 % 0 mm
01:22 -17.2 °C -25.3 °C 34395 hPa Calm     33 % 0 mm
01:27 -17.2 °C -25.2 °C 34428.8 hPa NW 6 km/h 6 km/h 33 % 0 mm
01:32 -17.2 °C -25.3 °C 34428.8 hPa WSW 3.7 km/h 4.2 km/h 33 % 0 mm
01:37 -17.2 °C -25.2 °C 34428.8 hPa South 6 km/h 6 km/h 33 % 0 mm
01:42 -17 °C -25.1 °C 34428.8 hPa NE 3.1 km/h   33 % 0 mm
01:47 -17.1 °C -25.1 °C 34428.8 hPa SW 6 km/h 6 km/h 33 % 0 mm
01:52 -17.3 °C -25.3 °C 34428.8 hPa SW 6 km/h 6 km/h 33 % 0 mm
01:57 -17.4 °C -25.4 °C 34395 hPa WSW 6 km/h 6 km/h 33 % 0 mm
02:02 -17.3 °C -25.3 °C 34395 hPa West 6.3 km/h 6.3 km/h 33 % 0 mm
02:07 -17.2 °C -25.3 °C 34395 hPa West 6 km/h 6 km/h 33 % 0 mm
02:12 -17.2 °C -25.3 °C 34395 hPa West 4.2 km/h 4.2 km/h 33 % 0 mm
02:17 -17.1 °C -25.2 °C 34395 hPa WSW 3.1 km/h 3.1 km/h 33 % 0 mm
02:22 -17.1 °C -25.2 °C 34395 hPa Calm     33 % 0 mm
02:27 -17.1 °C -25.2 °C 34395 hPa Calm     33 % 0 mm
02:32 -17.1 °C -25.2 °C 34395 hPa WSW 3.1 km/h 3.1 km/h 33 % 0 mm
02:37 -17 °C -25.1 °C 34395 hPa NW 6 km/h 6 km/h 33 % 0 mm
02:42 -16.9 °C -25 °C 34395 hPa North 6 km/h 6 km/h 33 % 0 mm
02:47 -16.9 °C -25 °C 34395 hPa NNE 3.1 km/h 3.1 km/h 33 % 0 mm
02:52 -16.9 °C -25 °C 34395 hPa West 6 km/h 6 km/h 33 % 0 mm
02:57 -17 °C -25.1 °C 34395 hPa Calm     33 % 0 mm
03:02 -17 °C -25.1 °C 34395 hPa NNW 6 km/h 6 km/h 33 % 0 mm
03:07 -17.1 °C -25.2 °C 34395 hPa West 6.3 km/h 6.3 km/h 33 % 0 mm
03:12 -17.2 °C -25.3 °C 34395 hPa West 6 km/h 6 km/h 33 % 0 mm
03:17 -17.1 °C -25.2 °C 34395 hPa SW 6 km/h 6 km/h 33 % 0 mm
03:22 -17.2 °C -25.2 °C 34395 hPa Calm     33 % 0 mm
03:27 -17.2 °C -25.3 °C 34361.1 hPa Calm     33 % 0 mm
03:32 -17.2 °C -25.3 °C 34361.1 hPa NNW 4.2 km/h 4.2 km/h 33 % 0 mm
03:37 -17.2 °C -25.3 °C 34361.1 hPa NNW 6 km/h 6 km/h 33 % 0 mm
03:42 -17.2 °C -25.3 °C 34361.1 hPa NNW 3.1 km/h   33 % 0 mm
03:47 -17.3 °C -25.3 °C 34361.1 hPa ENE 4.2 km/h   33 % 0 mm
03:52 -17.2 °C -25.3 °C 34361.1 hPa ENE 6 km/h 6 km/h 33 % 0 mm
03:57 -17.2 °C -25.3 °C 34395 hPa North 3.7 km/h 3.7 km/h 33 % 0 mm
04:02 -17.3 °C -25.3 °C 34395 hPa NE 6 km/h 6 km/h 33 % 0 mm
04:07 -17.3 °C -25.3 °C 34395 hPa NW 6 km/h 6 km/h 33 % 0 mm
04:12 -17.3 °C -25.3 °C 34395 hPa NE 6 km/h 6 km/h 33 % 0 mm
04:17 -17.3 °C -25.3 °C 34395 hPa NW 3.1 km/h   33 % 0 mm
04:22 -17.3 °C -25.4 °C 34395 hPa North 3.1 km/h   33 % 0 mm
04:27 -17.3 °C -25.3 °C 34395 hPa NNE 9 km/h 9 km/h 33 % 0 mm
04:32 -17.2 °C -25.3 °C 34395 hPa NNE 6 km/h 6 km/h 33 % 0 mm
04:37 -17.3 °C -25.2 °C 34395 hPa SW 5.6 km/h 5.6 km/h 34 % 0 mm
04:42 -17.6 °C -25.4 °C 34395 hPa WSW 3.1 km/h   34 % 0 mm
04:47 -17.5 °C -25.3 °C 34395 hPa NNW 6 km/h 6 km/h 34 % 0 mm
04:52 -17.5 °C -25.3 °C 34395 hPa Calm     34 % 0 mm
04:57 -17.4 °C -25.2 °C 34395 hPa NW 6 km/h 6 km/h 34 % 0 mm
05:02 -17.3 °C -25.2 °C 34395 hPa NNE 9 km/h 9 km/h 34 % 0 mm
05:07 -17.3 °C -25.2 °C 34395 hPa NNE 9 km/h 9 km/h 34 % 0 mm
05:12 -17.3 °C -25.2 °C 34395 hPa Calm     34 % 0 mm
05:17 -17.4 °C -25.2 °C 34395 hPa North 6 km/h 6 km/h 34 % 0 mm
05:22 -17.4 °C -25.3 °C 34395 hPa SE 6 km/h 6 km/h 34 % 0 mm
05:27 -17.4 °C -25.1 °C 34395 hPa NNE 3.1 km/h   35 % 0 mm
05:32 -17.4 °C -25.1 °C 34395 hPa NNW 3.1 km/h   35 % 0 mm
05:37 -17.5 °C -25.1 °C 34395 hPa NW 3.1 km/h 3.1 km/h 35 % 0 mm
05:42 -17.4 °C -24.9 °C 34395 hPa NNE 5.1 km/h   36 % 0 mm
05:47 -17.3 °C -24.8 °C 34395 hPa WNW 6 km/h   36 % 0 mm
05:52 -17.3 °C -24.6 °C 34395 hPa NNW 6.3 km/h   37 % 0 mm
05:57 -17.3 °C -24.6 °C 34395 hPa WNW 6 km/h 6 km/h 37 % 0 mm
06:02 -17.3 °C -24.6 °C 34395 hPa SW 9 km/h 9 km/h 37 % 0 mm
06:07 -17.3 °C -24.4 °C 34395 hPa NNW 15 km/h 15 km/h 38 % 0 mm
06:12 -17.3 °C -24.2 °C 34395 hPa WNW 5.1 km/h 5.1 km/h 39 % 0 mm
06:17 -17.3 °C -24.2 °C 34395 hPa ENE 6 km/h 6 km/h 39 % 0 mm
06:22 -17.3 °C -24.1 °C 34395 hPa ENE 9 km/h 9 km/h 40 % 0 mm
06:27 -17.4 °C -24.1 °C 34395 hPa West 5.1 km/h   40 % 0 mm
06:32 -17.3 °C -24.1 °C 34395 hPa NE 6.8 km/h 6.8 km/h 40 % 0 mm
06:37 -17.3 °C -23.9 °C 34395 hPa NNW 3.1 km/h   41 % 0 mm
06:42 -17.3 °C -23.9 °C 34361.1 hPa North 9 km/h 9 km/h 41 % 0 mm
06:47 -17.3 °C -23.8 °C 34361.1 hPa East 3.7 km/h 3.7 km/h 41 % 0 mm
06:52 -17.3 °C -23.7 °C 34361.1 hPa NNE 11.9 km/h 11.9 km/h 42 % 0 mm
06:57 -17.2 °C -23.6 °C 34395 hPa NNE 9 km/h 9 km/h 42 % 0 mm
06:58 -17.2 °C -23.6 °C 34395 hPa NNE 9 km/h 9 km/h 42 % 0 mm
07:03 -17.3 °C -23.6 °C 34395 hPa NNW 3.1 km/h 3.1 km/h 43 % 0 mm
07:08 -17.3 °C -23.6 °C 34395 hPa NNE 6 km/h 6 km/h 43 % 0 mm
07:13 -17.3 °C -23.5 °C 34395 hPa NE 11.9 km/h 11.9 km/h 43 % 0 mm
07:18 -17.2 °C -23.3 °C 34395 hPa NNW 6 km/h 6 km/h 44 % 0 mm
07:23 -17.2 °C -23.3 °C 34395 hPa WNW 9 km/h 9 km/h 44 % 0 mm
07:28 -17.2 °C -23.2 °C 34428.8 hPa SSW 6 km/h 6 km/h 44 % 0 mm
07:33 -17.2 °C -23.1 °C 34428.8 hPa NNW 3.1 km/h   45 % 0 mm
07:38 -17.2 °C -23.1 °C 34428.8 hPa WNW 5.6 km/h 5.6 km/h 45 % 0 mm
07:43 -17.3 °C -23.2 °C 34395 hPa West 6 km/h 6 km/h 45 % 0 mm
07:48 -17.3 °C -23.2 °C 34395 hPa NE 6 km/h   45 % 0 mm
07:53 -17.3 °C -23.1 °C 34395 hPa NE 6.8 km/h 6.8 km/h 46 % 0 mm
07:58 -17.3 °C -23.1 °C 34428.8 hPa NNE 9 km/h 9 km/h 46 % 0 mm
08:03 -17.3 °C -23.1 °C 34428.8 hPa WNW 6 km/h 6 km/h 46 % 0 mm
08:08 -17.3 °C -22.9 °C 34428.8 hPa ENE 3.1 km/h 3.1 km/h 47 % 0 mm
08:13 -17.2 °C -22.8 °C 34428.8 hPa NNE 6.3 km/h 6.3 km/h 47 % 0 mm
08:18 -17.2 °C -22.9 °C 34428.8 hPa SW 6 km/h 6 km/h 46 % 0 mm
08:23 -17.2 °C -22.9 °C 34428.8 hPa WSW 6 km/h 6 km/h 46 % 0 mm
08:28 -17.1 °C -22.7 °C 34395 hPa North 6 km/h 6 km/h 47 % 0 mm
08:33 -16.7 °C -22.2 °C 34395 hPa NNE 3.1 km/h 3.1 km/h 48 % 0 mm
08:38 -16.3 °C -21.8 °C 34395 hPa ESE 6 km/h 6 km/h 48 % 0 mm
08:43 -16.4 °C -21.9 °C 34428.8 hPa East 6.3 km/h 6.3 km/h 48 % 0 mm
08:48 -16.5 °C -22 °C 34428.8 hPa WSW 3.1 km/h 3.1 km/h 48 % 0 mm
08:53 -16.4 °C -21.9 °C 34428.8 hPa Calm     48 % 0 mm
08:58 -16.4 °C -21.9 °C 34428.8 hPa Calm     48 % 0 mm
09:03 -16.4 °C -21.9 °C 34428.8 hPa Calm     48 % 0 mm
09:08 -16.5 °C -22 °C 34428.8 hPa West 6 km/h 6 km/h 48 % 0 mm
09:13 -16.6 °C -21.9 °C 34428.8 hPa Calm     49 % 0 mm
09:18 -16.4 °C -21.8 °C 34428.8 hPa Calm     49 % 0 mm
09:23 -16.2 °C -21.4 °C 34428.8 hPa ENE 6 km/h   50 % 0 mm
09:28 -16 °C -21.4 °C 34428.8 hPa Calm     49 % 0 mm
09:33 -15.8 °C -21.2 °C 34428.8 hPa NE 6 km/h 6 km/h 49 % 0 mm
09:38 -15.7 °C -21.1 °C 34428.8 hPa NE 3.1 km/h 3.1 km/h 49 % 0 mm
09:43 -15.7 °C -21.2 °C 34462.7 hPa NNE 6.3 km/h 6.3 km/h 49 % 0 mm
09:48 -15.8 °C -21.2 °C 34462.7 hPa NE 11.9 km/h 11.9 km/h 49 % 0 mm
09:53 -15.8 °C -21.2 °C 34462.7 hPa NNE 7.6 km/h 7.6 km/h 49 % 0 mm
09:58 -15.8 °C -21.2 °C 34428.8 hPa NNE 15 km/h 15 km/h 49 % 0 mm
10:03 -15.8 °C -21.2 °C 34428.8 hPa NNE 5.1 km/h   49 % 0 mm
10:08 -15.8 °C -21.2 °C 34428.8 hPa NW 6 km/h 6 km/h 49 % 0 mm
10:13 -15.5 °C -20.9 °C 34428.8 hPa NNW 6.8 km/h 6.8 km/h 49 % 0 mm
10:18 -15.3 °C -20.7 °C 34428.8 hPa NW 9 km/h 9 km/h 49 % 0 mm
10:23 -14.9 °C -20.4 °C 34428.8 hPa ENE 4.2 km/h 4.2 km/h 49 % 0 mm
10:28 -14.9 °C -20.4 °C 34462.7 hPa WNW 11.9 km/h 11.9 km/h 49 % 0 mm
10:33 -14.8 °C -20.3 °C 34462.7 hPa ENE 6 km/h 6 km/h 49 % 0 mm
10:38 -14.6 °C -20.1 °C 34462.7 hPa NNE 11.9 km/h 11.9 km/h 49 % 0 mm
10:43 -14.7 °C -20.3 °C 34462.7 hPa NE 11.9 km/h 11.9 km/h 48 % 0 mm
10:48 -14.6 °C -20.3 °C 34462.7 hPa NNE 9 km/h 9 km/h 48 % 0 mm
10:53 -14.4 °C -19.9 °C 34462.7 hPa NNE 6.8 km/h 6.8 km/h 49 % 0 mm
10:58 -14.4 °C -20.1 °C 34462.7 hPa East 11.9 km/h 11.9 km/h 48 % 0 mm
11:03 -14.3 °C -19.9 °C 34462.7 hPa NNE 9 km/h 9 km/h 48 % 0 mm
11:08 -14.2 °C -19.9 °C 34462.7 hPa NE 11.9 km/h 11.9 km/h 48 % 0 mm
11:13 -14.2 °C -19.8 °C 34462.7 hPa NNE 11.1 km/h 11.1 km/h 48 % 0 mm
11:18 -14.1 °C -19.8 °C 34462.7 hPa ENE 9 km/h 9 km/h 48 % 0 mm
11:23 -13.9 °C -19.7 °C 34462.7 hPa NNE 12.2 km/h 12.2 km/h 48 % 0 mm
11:28 -13.8 °C -19.6 °C 34428.8 hPa NNE 6 km/h 6 km/h 48 % 0 mm
11:33 -13.8 °C -19.6 °C 34428.8 hPa NE 9 km/h 9 km/h 48 % 0 mm
11:38 -13.8 °C -19.7 °C 34428.8 hPa East 9 km/h 9 km/h 47 % 0 mm
11:43 -13.6 °C -19.3 °C 34428.8 hPa NE 9.3 km/h 9.3 km/h 48 % 0 mm
11:48 -13.4 °C -19.3 °C 34428.8 hPa ENE 9 km/h 9 km/h 47 % 0 mm
11:53 -13.3 °C -19.2 °C 34428.8 hPa NNE 6.8 km/h 6.8 km/h 47 % 0 mm
11:58 -13.2 °C -19.1 °C 34428.8 hPa ESE 9 km/h 9 km/h 47 % 0 mm
12:03 -13.2 °C -19.1 °C 34428.8 hPa NNE 9.8 km/h 9.8 km/h 47 % 0 mm
12:08 -13.2 °C -19.1 °C 34428.8 hPa NE 9 km/h 9 km/h 47 % 0 mm
12:13 -13.1 °C -19 °C 34395 hPa NNE 9 km/h 9 km/h 47 % 0 mm
12:18 -12.9 °C -18.9 °C 34395 hPa NNE 9 km/h 9 km/h 47 % 0 mm
12:23 -12.7 °C -18.7 °C 34395 hPa East 6 km/h 6 km/h 47 % 0 mm
12:28 -12.6 °C -18.6 °C 34395 hPa ENE 9.8 km/h 9.8 km/h 47 % 0 mm
12:33 -12.5 °C -18.5 °C 34395 hPa ENE 6.8 km/h 6.8 km/h 47 % 0 mm
12:38 -12.6 °C -18.5 °C 34395 hPa East 11.9 km/h 11.9 km/h 47 % 0 mm
12:43 -12.4 °C -18.4 °C 34395 hPa NE 11.9 km/h 11.9 km/h 47 % 0 mm
12:48 -12.2 °C -18.2 °C 34395 hPa ENE 9 km/h 9 km/h 47 % 0 mm
12:53 -12.1 °C -18.1 °C 34395 hPa ENE 9 km/h 9 km/h 47 % 0 mm
12:58 -12 °C -18 °C 34395 hPa NE 11.9 km/h 11.9 km/h 47 % 0 mm
13:03 -11.7 °C -17.8 °C 34395 hPa NNE 9.8 km/h 9.8 km/h 47 % 0 mm
13:08 -11.9 °C -17.9 °C 34395 hPa NE 11.9 km/h 11.9 km/h 47 % 0 mm
13:13 -11.7 °C -17.8 °C 34395 hPa ESE 15 km/h 15 km/h 47 % 0 mm
13:18 -11.7 °C -17.8 °C 34395 hPa ENE 11.9 km/h 11.9 km/h 47 % 0 mm
13:23 -11.6 °C -17.6 °C 34395 hPa WSW 6.8 km/h 6.8 km/h 47 % 0 mm
13:28 -11.4 °C -17.5 °C 34361.1 hPa NNE 3.1 km/h 3.1 km/h 47 % 0 mm
13:33 -11.4 °C -17.4 °C 34361.1 hPa East 6 km/h 6 km/h 47 % 0 mm
13:38 -10.9 °C -16.9 °C 34361.1 hPa SSW 9 km/h 9 km/h 48 % 0 mm
13:43 -10.8 °C -16.8 °C 34361.1 hPa WSW 11.9 km/h 11.9 km/h 48 % 0 mm
13:48 -10.7 °C -16.7 °C 34361.1 hPa SSW 9 km/h 9 km/h 48 % 0 mm
13:53 -10.6 °C -16.6 °C 34361.1 hPa SW 3.1 km/h 3.1 km/h 48 % 0 mm
13:58 -10.4 °C -16.2 °C 34361.1 hPa SSW 12.7 km/h 12.7 km/h 49 % 0 mm
14:03 -10.2 °C -16 °C 34361.1 hPa WNW 17.9 km/h 17.9 km/h 49 % 0 mm
14:08 -10.2 °C -16 °C 34361.1 hPa WSW 11.1 km/h 11.1 km/h 49 % 0 mm
14:13 -10.2 °C -15.9 °C 34361.1 hPa WSW 23.8 km/h 23.8 km/h 50 % 0 mm
14:18 -10.2 °C -15.9 °C 34361.1 hPa West 9.3 km/h 9.3 km/h 50 % 0 mm
14:23 -10.4 °C -16.1 °C 34361.1 hPa WNW 9 km/h 9 km/h 50 % 0 mm
14:28 -10.4 °C -16.1 °C 34327.3 hPa NW 9 km/h 9 km/h 50 % 0 mm
14:33 -10.3 °C -16 °C 34327.3 hPa WNW 11.9 km/h 11.9 km/h 50 % 0 mm
14:38 -10.3 °C -15.9 °C 34327.3 hPa WNW 9.3 km/h 9.3 km/h 50 % 0 mm
14:43 -10.2 °C -15.9 °C 34327.3 hPa WSW 6 km/h 6 km/h 50 % 0 mm
14:48 -10.2 °C -15.9 °C 34327.3 hPa NW 18.3 km/h 18.3 km/h 50 % 0 mm
14:53 -10.2 °C -15.7 °C 34327.3 hPa West 15 km/h 15 km/h 51 % 0 mm
14:58 -10 °C -15.6 °C 34327.3 hPa West 11.9 km/h 11.9 km/h 51 % 0 mm
15:03 -9.9 °C -15.5 °C 34327.3 hPa North 9 km/h 9 km/h 51 % 0 mm
15:08 -9.9 °C -15.5 °C 34327.3 hPa SW 9 km/h 9.3 km/h 51 % 0 mm
15:13 -9.8 °C -15.4 °C 34327.3 hPa NW 15 km/h 15 km/h 51 % 0 mm
15:18 -9.9 °C -15.4 °C 34327.3 hPa WNW 15 km/h 15 km/h 51 % 0 mm
15:23 -9.8 °C -15.3 °C 34327.3 hPa WNW 9 km/h 9 km/h 51 % 0 mm
15:28 -9.8 °C -15.4 °C 34327.3 hPa WSW 15.6 km/h 15.6 km/h 51 % 0 mm
15:33 -9.8 °C -15.4 °C 34327.3 hPa West 9 km/h 9 km/h 51 % 0 mm
15:38 -9.8 °C -15.4 °C 34327.3 hPa West 15 km/h 15 km/h 51 % 0 mm
15:43 -9.8 °C -15.3 °C 34327.3 hPa West 15 km/h 15.3 km/h 51 % 0 mm
15:48 -9.7 °C -15.2 °C 34327.3 hPa SW 9 km/h 9 km/h 51 % 0 mm
15:53 -9.6 °C -15.1 °C 34327.3 hPa WNW 9 km/h 9 km/h 52 % 0 mm
15:58 -9.7 °C -15.1 °C 34327.3 hPa SW 15 km/h 15 km/h 52 % 0 mm
16:03 -9.8 °C -15.2 °C 34327.3 hPa West 15 km/h 15 km/h 52 % 0 mm
16:08 -9.9 °C -15.3 °C 34327.3 hPa SW 11.9 km/h 11.9 km/h 52 % 0 mm
16:13 -9.8 °C -15.2 °C 34293.4 hPa WSW 15.3 km/h 15.3 km/h 52 % 0 mm
16:18 -9.9 °C -15.3 °C 34293.4 hPa West 9 km/h 9 km/h 52 % 0 mm
16:23 -9.9 °C -15.3 °C 34293.4 hPa WNW 9 km/h 9 km/h 52 % 0 mm
16:28 -9.9 °C -15.3 °C 34327.3 hPa WSW 15 km/h 15 km/h 52 % 0 mm
16:33 -9.9 °C -15.3 °C 34327.3 hPa NNE 9 km/h 9 km/h 52 % 0 mm
16:38 -9.9 °C -15.2 °C 34327.3 hPa WNW 15 km/h 15 km/h 53 % 0 mm
16:43 -9.9 °C -15.2 °C 34327.3 hPa WNW 3.1 km/h   53 % 0 mm
16:48 -9.7 °C -15 °C 34327.3 hPa NW 9 km/h 9 km/h 53 % 0 mm
16:53 -9.7 °C -15 °C 34327.3 hPa WSW 6 km/h 6 km/h 53 % 0 mm
16:58 -9.6 °C -14.9 °C 34327.3 hPa SW 6 km/h 6 km/h 53 % 0 mm
17:03 -9.5 °C -14.8 °C 34327.3 hPa NNW 4.2 km/h 4.2 km/h 53 % 0 mm
17:08 -9.5 °C -14.8 °C 34327.3 hPa WSW 6 km/h 6 km/h 53 % 0 mm
17:13 -9.6 °C -14.9 °C 34293.4 hPa WSW 15 km/h 15 km/h 53 % 0 mm
17:18 -9.7 °C -15 °C 34293.4 hPa NNE 6 km/h 6 km/h 53 % 0 mm
17:23 -9.8 °C -15.1 °C 34293.4 hPa WSW 6 km/h 6 km/h 53 % 0 mm
17:28 -9.8 °C -15.1 °C 34293.4 hPa NW 6 km/h 6 km/h 53 % 0 mm
17:33 -9.9 °C -15 °C 34293.4 hPa SW 9.3 km/h 9.3 km/h 54 % 0 mm
17:38 -9.8 °C -14.9 °C 34293.4 hPa WSW 3.7 km/h 4.2 km/h 54 % 0 mm
17:43 -9.9 °C -15 °C 34293.4 hPa SSW 6 km/h 6 km/h 54 % 0 mm
17:48 -9.9 °C -15.1 °C 34293.4 hPa West 6 km/h 6 km/h 54 % 0 mm
17:53 -10.1 °C -15.2 °C 34293.4 hPa West 9 km/h 9 km/h 54 % 0 mm
17:58 -10.1 °C -15.2 °C 34293.4 hPa West 9 km/h 9 km/h 54 % 0 mm
18:03 -10.2 °C -15.2 °C 34293.4 hPa WNW 15 km/h 15 km/h 54 % 0 mm
18:08 -10.2 °C -15.2 °C 34293.4 hPa West 12.2 km/h 12.2 km/h 55 % 0 mm
18:13 -10.2 °C -15.2 °C 34293.4 hPa West 11.9 km/h 11.9 km/h 55 % 0 mm
18:18 -10.2 °C -15.2 °C 34293.4 hPa WNW 11.9 km/h 11.9 km/h 55 % 0 mm
18:23 -10.3 °C -15.2 °C 34293.4 hPa West 11.9 km/h 11.9 km/h 55 % 0 mm
18:28 -10.3 °C -15.1 °C 34293.4 hPa West 9 km/h 9 km/h 56 % 0 mm
18:33 -10.4 °C -15.2 °C 34293.4 hPa WSW 9 km/h 9 km/h 56 % 0 mm
18:38 -10.4 °C -15.2 °C 34293.4 hPa WSW 9 km/h 9 km/h 56 % 0 mm
18:43 -10.4 °C -15.2 °C 34327.3 hPa West 7.6 km/h 7.6 km/h 56 % 0 mm
18:48 -10.5 °C -15.3 °C 34327.3 hPa WSW 9 km/h 9 km/h 56 % 0 mm
18:53 -10.7 °C -15.3 °C 34327.3 hPa WSW 9 km/h 9 km/h 57 % 0 mm
18:58 -10.8 °C -15.4 °C 34327.3 hPa WNW 11.9 km/h 11.9 km/h 57 % 0 mm
19:03 -10.9 °C -15.4 °C 34327.3 hPa WNW 9 km/h 9 km/h 58 % 0 mm
19:08 -11 °C -15.4 °C 34327.3 hPa West 6 km/h 6 km/h 58 % 0 mm
19:13 -11.2 °C -15.5 °C 34327.3 hPa WSW 6.3 km/h 6.3 km/h 59 % 0 mm
19:18 -11.3 °C -15.6 °C 34327.3 hPa WSW 10.3 km/h 10.3 km/h 59 % 0 mm
19:23 -11.3 °C -15.5 °C 34327.3 hPa SW 9 km/h 9 km/h 60 % 0 mm
19:28 -11.4 °C -15.4 °C 34327.3 hPa WSW 8.5 km/h 8.5 km/h 61 % 0 mm
19:33 -11.5 °C -15.5 °C 34327.3 hPa WSW 6.3 km/h 6.3 km/h 61 % 0 mm
19:38 -11.6 °C -15.6 °C 34327.3 hPa West 9 km/h 9 km/h 61 % 0 mm
19:43 -11.6 °C -15.5 °C 34327.3 hPa WSW 9 km/h 9 km/h 62 % 0 mm
19:48 -11.7 °C -15.6 °C 34327.3 hPa West 9.8 km/h 9.8 km/h 62 % 0 mm
19:53 -11.7 °C -15.4 °C 34327.3 hPa West 6.8 km/h 6.8 km/h 63 % 0 mm
19:58 -11.7 °C -15.5 °C 34327.3 hPa WSW 9 km/h 9 km/h 63 % 0 mm
20:03 -11.8 °C -15.6 °C 34327.3 hPa WSW 6 km/h 6 km/h 63 % 0 mm
20:08 -11.9 °C -15.5 °C 34327.3 hPa SW 6 km/h 6 km/h 64 % 0 mm
20:13 -11.9 °C -15.5 °C 34327.3 hPa SW 6 km/h 6 km/h 64 % 0 mm
20:18 -11.9 °C -15.5 °C 34327.3 hPa SW 9 km/h 9 km/h 64 % 0 mm
20:23 -11.9 °C -15.5 °C 34327.3 hPa SSW 8 km/h 8 km/h 64 % 0 mm
20:28 -11.9 °C -15.5 °C 34293.4 hPa WSW 9 km/h 9 km/h 64 % 0 mm
20:33 -11.9 °C -15.5 °C 34293.4 hPa SSW 9.3 km/h 9.3 km/h 64 % 0 mm
20:38 -11.9 °C -15.5 °C 34293.4 hPa WSW 15 km/h 15 km/h 64 % 0 mm
20:43 -11.8 °C -15.4 °C 34293.4 hPa WSW 11.9 km/h 11.9 km/h 64 % 0 mm
20:48 -11.7 °C -15.3 °C 34293.4 hPa WSW 11.9 km/h 11.9 km/h 64 % 0 mm
20:53 -11.7 °C -15.3 °C 34293.4 hPa SW 9 km/h 9 km/h 64 % 0 mm
20:58 -11.7 °C -15.3 °C 34293.4 hPa WSW 9 km/h 9 km/h 64 % 0 mm
21:03 -11.7 °C -15.3 °C 34293.4 hPa WSW 6 km/h 6 km/h 64 % 0 mm
21:08 -11.7 °C -15.3 °C 34293.4 hPa West 6 km/h 6 km/h 64 % 0 mm
21:13 -11.6 °C -15.2 °C 34293.4 hPa West 6 km/h 6 km/h 64 % 0 mm
21:18 -11.5 °C -15.3 °C 34293.4 hPa West 11.9 km/h 11.9 km/h 63 % 0 mm
21:23 -11.2 °C -15 °C 34293.4 hPa WSW 11.9 km/h 11.9 km/h 63 % 0 mm
21:28 -11.1 °C -14.8 °C 34256.2 hPa WSW 9 km/h 9 km/h 63 % 0 mm
21:33 -11.1 °C -14.8 °C 34256.2 hPa SW 9 km/h 9 km/h 63 % 0 mm
21:38 -11.1 °C -14.8 °C 34256.2 hPa NW 9 km/h 9 km/h 63 % 0 mm
21:43 -11 °C -14.8 °C 34256.2 hPa WNW 3.1 km/h   63 % 0 mm
21:48 -11 °C -14.9 °C 34256.2 hPa WSW 9 km/h 9 km/h 62 % 0 mm
21:53 -11 °C -14.9 °C 34256.2 hPa WSW 9 km/h 9 km/h 62 % 0 mm
21:58 -10.9 °C -14.9 °C 34293.4 hPa West 11.9 km/h 11.9 km/h 62 % 0 mm
22:03 -10.9 °C -14.9 °C 34293.4 hPa WNW 9.8 km/h 9.8 km/h 62 % 0 mm
22:08 -10.9 °C -15 °C 34293.4 hPa WNW 9 km/h 9 km/h 61 % 0 mm
22:13 -10.9 °C -15 °C 34293.4 hPa WSW 6 km/h 6 km/h 61 % 0 mm
22:18 -10.9 °C -15 °C 34293.4 hPa WSW 6.3 km/h 6.3 km/h 61 % 0 mm
22:23 -11.1 °C -15.1 °C 34293.4 hPa NNE 5.1 km/h 5.1 km/h 61 % 0 mm
22:28 -11.3 °C -15.3 °C 34256.2 hPa ENE 6 km/h 6.3 km/h 61 % 0 mm
22:33 -11.3 °C -15.4 °C 34256.2 hPa NNE 3.1 km/h   61 % 0 mm
22:38 -11.4 °C -15.4 °C 34256.2 hPa NNE 9 km/h 9 km/h 61 % 0 mm
22:43 -11.5 °C -15.5 °C 34256.2 hPa ENE 3.1 km/h   61 % 0 mm
22:48 -11.5 °C -15.5 °C 34256.2 hPa NNW 3.1 km/h   61 % 0 mm
22:53 -11.6 °C -15.6 °C 34256.2 hPa NW 3.1 km/h   61 % 0 mm
22:58 -11.6 °C -15.7 °C 34256.2 hPa NNE 6 km/h 6 km/h 61 % 0 mm
23:03 -11.6 °C -15.7 °C 34256.2 hPa NNE 3.7 km/h   61 % 0 mm
23:08 -11.7 °C -15.7 °C 34256.2 hPa West 3.1 km/h   61 % 0 mm
23:13 -11.7 °C -15.7 °C 34256.2 hPa Calm     61 % 0 mm
23:18 -11.7 °C -15.7 °C 34256.2 hPa WSW 6 km/h 6 km/h 61 % 0 mm
23:23 -11.8 °C -15.8 °C 34256.2 hPa WSW 3.1 km/h   61 % 0 mm
23:28 -11.8 °C -15.8 °C 34293.4 hPa ENE 3.1 km/h   61 % 0 mm
23:33 -11.8 °C -15.8 °C 34293.4 hPa ENE 3.1 km/h   61 % 0 mm
23:38 -11.7 °C -15.6 °C 34293.4 hPa ENE 9 km/h 9 km/h 62 % 0 mm
23:43 -11.8 °C -15.7 °C 34293.4 hPa NE 6 km/h 6 km/h 62 % 0 mm
23:48 -11.9 °C -15.9 °C 34293.4 hPa WNW 6 km/h 6 km/h 61 % 0 mm
23:53 -11.9 °C -15.8 °C 34293.4 hPa NW 4.2 km/h 4.2 km/h 62 % 0 mm
23:58 -12 °C -15.9 °C 34293.4 hPa WNW 6 km/h 6 km/h 62 % 0 mm
Meteo Sesrovires
Elogis d' Weather Underground - 2 mb

Guio original per  Jim McMurry - jmcmurry@mwt.net Adaptat per a la plantilla per  Wim van der Kuil - Leuven-Template.eu

Trobareu la nostra informacio del temps tambe a:

Weather Underground

AWEKAS